createdAt,value
2022-10-14T00:01:44.035Z,100872.63
2022-10-14T00:04:10.493Z,100868.00
2022-10-14T00:06:36.873Z,100864.72
2022-10-14T00:09:07.094Z,100861.25
2022-10-14T00:11:34.519Z,100856.34
2022-10-14T00:14:13.383Z,100856.56
2022-10-14T00:16:42.038Z,100851.84
2022-10-14T00:19:08.965Z,100849.78
2022-10-14T00:21:37.784Z,100842.78
2022-10-14T00:27:50.843Z,100837.78
2022-10-14T00:30:17.300Z,100837.69
2022-10-14T00:32:43.710Z,100837.59
2022-10-14T00:35:10.343Z,100837.00
2022-10-14T00:37:36.831Z,100844.69
2022-10-14T00:40:04.860Z,100849.50
2022-10-14T00:42:34.467Z,100848.59
2022-10-14T00:45:06.340Z,100841.69
2022-10-14T00:47:33.054Z,100845.22
2022-10-14T00:49:59.625Z,100841.69
2022-10-14T00:52:26.162Z,100842.53
2022-10-14T00:55:03.670Z,100844.59
2022-10-14T00:57:30.636Z,100841.41
2022-10-14T01:00:01.856Z,100838.13
2022-10-14T01:02:28.254Z,100831.91
2022-10-14T01:04:54.650Z,100839.59
2022-10-14T01:07:32.315Z,100842.00
2022-10-14T01:10:14.291Z,100836.69
2022-10-14T01:12:46.668Z,100843.91
2022-10-14T01:15:27.145Z,100852.38
2022-10-14T01:18:08.691Z,100851.09
2022-10-14T01:21:02.945Z,100853.91
2022-10-14T01:23:42.748Z,100848.50
2022-10-14T01:26:33.954Z,100849.50
2022-10-14T01:29:29.714Z,100850.91
2022-10-14T01:32:06.653Z,100845.97
2022-10-14T01:34:52.445Z,100838.50
2022-10-14T01:37:23.022Z,100839.28
2022-10-14T01:39:52.351Z,100843.38
2022-10-14T01:42:22.563Z,100838.50
2022-10-14T01:44:55.725Z,100839.69
2022-10-14T01:47:22.937Z,100829.00
2022-10-14T01:49:57.937Z,100827.63
2022-10-14T01:52:32.485Z,100828.91
2022-10-14T01:55:02.165Z,100827.63
2022-10-14T01:57:32.415Z,100833.03
2022-10-14T01:59:59.515Z,100820.34
2022-10-14T02:02:26.170Z,100822.94
2022-10-14T02:04:52.583Z,100820.34
2022-10-14T02:07:33.975Z,100825.66
2022-10-14T02:10:09.727Z,100819.16
2022-10-14T02:12:47.045Z,100814.19
2022-10-14T02:19:10.541Z,100809.97
2022-10-14T02:21:42.320Z,100800.28
2022-10-14T02:24:36.114Z,100799.47
2022-10-14T02:27:05.611Z,100798.88
2022-10-14T02:29:33.219Z,100794.38
2022-10-14T02:32:00.139Z,100800.50
2022-10-14T02:34:27.303Z,100791.59
2022-10-14T02:36:55.032Z,100786.19
2022-10-14T02:39:25.978Z,100789.00
2022-10-14T02:41:52.366Z,100782.19
2022-10-14T02:44:18.839Z,100775.41
2022-10-14T02:46:45.254Z,100785.00
2022-10-14T02:49:11.700Z,100782.91
2022-10-14T02:51:38.266Z,100783.00
2022-10-14T02:54:04.662Z,100781.38
2022-10-14T02:56:31.115Z,100778.00
2022-10-14T02:58:57.478Z,100775.22
2022-10-14T03:01:23.954Z,100772.63
2022-10-14T03:03:50.399Z,100771.91
2022-10-14T03:06:16.861Z,100764.00
2022-10-14T03:08:43.279Z,100757.13
2022-10-14T03:11:12.897Z,100755.72
2022-10-14T03:13:39.335Z,100755.91
2022-10-14T03:16:05.869Z,100746.22
2022-10-14T03:18:32.277Z,100753.91
2022-10-14T03:24:45.920Z,100749.63
2022-10-14T03:27:12.379Z,100754.44
2022-10-14T03:29:38.801Z,100756.00
2022-10-14T03:32:05.343Z,100756.81
2022-10-14T03:34:31.783Z,100750.81
2022-10-14T03:36:58.239Z,100753.59
2022-10-14T03:39:25.416Z,100744.75
2022-10-14T03:41:51.975Z,100749.81
2022-10-14T03:44:18.365Z,100743.22
2022-10-14T03:46:44.814Z,100737.03
2022-10-14T03:49:11.291Z,100740.75
2022-10-14T03:51:38.156Z,100741.22
2022-10-14T03:54:04.691Z,100744.84
2022-10-14T03:56:31.123Z,100742.94
2022-10-14T03:58:57.563Z,100741.72
2022-10-14T04:01:24.059Z,100740.34
2022-10-14T04:03:50.967Z,100741.13
2022-10-14T04:06:17.612Z,100735.03
2022-10-14T04:08:44.446Z,100741.22
2022-10-14T04:11:10.948Z,100738.75
2022-10-14T04:13:37.336Z,100744.84
2022-10-14T04:16:09.244Z,100742.13
2022-10-14T04:18:36.287Z,100737.03
2022-10-14T04:24:50.224Z,100737.22
2022-10-14T04:27:17.382Z,100735.44
2022-10-14T04:29:43.833Z,100737.22
2022-10-14T04:32:10.230Z,100733.56
2022-10-14T04:34:36.623Z,100727.44
2022-10-14T04:37:03.321Z,100728.56
2022-10-14T04:39:30.006Z,100736.03
2022-10-14T04:45:42.924Z,100727.44
2022-10-14T04:48:09.385Z,100724.06
2022-10-14T04:50:35.756Z,100710.38
2022-10-14T04:53:02.321Z,100714.78
2022-10-14T04:55:28.701Z,100717.47
2022-10-14T05:01:42.193Z,100717.84
2022-10-14T05:04:08.566Z,100719.66
2022-10-14T05:06:35.337Z,100718.84
2022-10-14T05:09:01.809Z,100724.06
2022-10-14T05:11:28.196Z,100724.25
2022-10-14T05:13:54.566Z,100725.63
2022-10-14T05:16:21.012Z,100724.84
2022-10-14T05:18:47.386Z,100723.34
2022-10-14T05:21:14.089Z,100716.63
2022-10-14T05:23:40.530Z,100717.75
2022-10-14T05:26:07.045Z,100716.63
2022-10-14T05:28:33.447Z,100713.84
2022-10-14T05:34:47.196Z,100712.47
2022-10-14T05:37:13.578Z,100711.75
2022-10-14T05:39:39.968Z,100709.56
2022-10-14T05:42:06.356Z,100710.47
2022-10-14T05:44:32.920Z,100703.97
2022-10-14T05:46:59.335Z,100705.97
2022-10-14T05:53:06.336Z,100694.00
2022-10-14T05:55:32.717Z,100696.47
2022-10-14T05:57:59.163Z,100695.28
2022-10-14T06:00:25.979Z,100696.28
2022-10-14T06:02:52.551Z,100690.97
2022-10-14T06:05:19.101Z,100686.28
2022-10-14T06:07:45.494Z,100693.88
2022-10-14T06:10:11.926Z,100684.91
2022-10-14T06:12:38.371Z,100684.06
2022-10-14T06:15:05.274Z,100682.50
2022-10-14T06:17:31.682Z,100682.69
2022-10-14T06:19:58.050Z,100691.47
2022-10-14T06:22:24.701Z,100684.56
2022-10-14T06:24:51.225Z,100683.09
2022-10-14T06:27:17.608Z,100676.69
2022-10-14T06:29:44.001Z,100676.28
2022-10-14T06:32:10.472Z,100681.56
2022-10-14T06:34:36.909Z,100682.84
2022-10-14T06:37:03.334Z,100673.16
2022-10-14T06:39:29.734Z,100658.75
2022-10-14T06:41:56.139Z,100669.25
2022-10-14T06:44:22.548Z,100661.66
2022-10-14T06:46:48.927Z,100658.66
2022-10-14T06:49:15.323Z,100652.53
2022-10-14T06:55:28.317Z,100646.31
2022-10-14T06:57:55.027Z,100644.69
2022-10-14T07:00:21.424Z,100645.09
2022-10-14T07:02:47.814Z,100640.78
2022-10-14T07:05:14.238Z,100640.69
2022-10-14T07:07:40.653Z,100640.88
2022-10-14T07:10:07.353Z,100635.75
2022-10-14T07:12:33.738Z,100638.66
2022-10-14T07:15:00.219Z,100631.94
2022-10-14T07:17:26.612Z,100641.38
2022-10-14T07:19:53.005Z,100641.84
2022-10-14T07:22:19.648Z,100634.75
2022-10-14T07:24:46.325Z,100630.63
2022-10-14T07:27:12.738Z,100629.75
2022-10-14T07:29:39.186Z,100631.53
2022-10-14T07:32:05.626Z,100634.25
2022-10-14T07:34:34.117Z,100637.47
2022-10-14T07:37:00.820Z,100637.66
2022-10-14T07:39:27.620Z,100642.06
2022-10-14T07:41:54.143Z,100641.41
2022-10-14T07:44:23.564Z,100635.59
2022-10-14T07:46:53.055Z,100627.06
2022-10-14T07:49:21.134Z,100620.16
2022-10-14T07:51:48.042Z,100615.75
2022-10-14T07:54:17.385Z,100609.50
2022-10-14T07:56:44.799Z,100606.44
2022-10-14T07:59:12.141Z,100608.34
2022-10-14T08:01:38.760Z,100615.41
2022-10-14T08:04:05.426Z,100609.13
2022-10-14T08:06:32.185Z,100607.16
2022-10-14T08:08:58.603Z,100618.03
2022-10-14T08:11:27.284Z,100626.38
2022-10-14T08:13:54.760Z,100612.28
2022-10-14T08:16:26.578Z,100608.25
2022-10-14T08:18:54.880Z,100607.72
2022-10-14T08:21:21.466Z,100610.03
2022-10-14T08:23:48.158Z,100599.09
2022-10-14T08:26:29.744Z,100612.75
2022-10-14T08:28:57.252Z,100599.59
2022-10-14T08:31:23.783Z,100601.69
2022-10-14T08:33:50.406Z,100599.34
2022-10-14T08:36:18.104Z,100593.69
2022-10-14T08:38:44.663Z,100584.97
2022-10-14T08:41:16.970Z,100585.41
2022-10-14T08:44:02.530Z,100576.22
2022-10-14T08:46:34.821Z,100576.59
2022-10-14T08:49:33.031Z,100578.66
2022-10-14T08:52:39.099Z,100572.66
2022-10-14T08:55:19.806Z,100570.50
2022-10-14T08:57:53.271Z,100570.22
2022-10-14T09:00:20.441Z,100573.53
2022-10-14T09:02:49.670Z,100558.84
2022-10-14T09:05:18.650Z,100570.13
2022-10-14T09:07:46.272Z,100558.84
2022-10-14T09:10:26.313Z,100561.16
2022-10-14T09:12:54.190Z,100558.13
2022-10-14T09:15:37.286Z,100550.56
2022-10-14T09:18:12.328Z,100554.88
2022-10-14T09:20:39.739Z,100551.31
2022-10-14T09:23:12.751Z,100545.28
2022-10-14T09:29:29.429Z,100531.47
2022-10-14T09:32:02.760Z,100536.72
2022-10-14T09:34:33.133Z,100531.28
2022-10-14T09:37:25.574Z,100526.97
2022-10-14T09:39:54.567Z,100511.66
2022-10-14T09:42:51.653Z,100515.38
2022-10-14T09:45:22.529Z,100504.88
2022-10-14T09:47:58.861Z,100505.31
2022-10-14T09:50:35.469Z,100501.84
2022-10-14T09:53:05.355Z,100500.69
2022-10-14T09:55:34.507Z,100500.97
2022-10-14T09:58:04.620Z,100490.81
2022-10-14T10:00:32.618Z,100492.03
2022-10-14T10:02:58.982Z,100496.69
2022-10-14T10:05:28.367Z,100488.88
2022-10-14T10:08:17.535Z,100485.38
2022-10-14T10:11:02.012Z,100487.84
2022-10-14T10:13:44.957Z,100486.94
2022-10-14T10:16:21.695Z,100477.53
2022-10-14T10:18:49.033Z,100478.06
2022-10-14T10:21:17.889Z,100480.78
2022-10-14T10:23:52.220Z,100469.69
2022-10-14T10:26:29.240Z,100466.44
2022-10-14T10:28:59.594Z,100466.50
2022-10-14T10:31:48.197Z,100455.19
2022-10-14T10:34:50.752Z,100458.34
2022-10-14T10:37:27.488Z,100453.78
2022-10-14T10:40:27.178Z,100451.78
2022-10-14T10:43:05.778Z,100442.28
2022-10-14T10:45:41.672Z,100440.47
2022-10-14T10:52:08.612Z,100437.31
2022-10-14T10:55:00.716Z,100431.16
2022-10-14T10:57:32.068Z,100424.69
2022-10-14T11:00:04.239Z,100421.28
2022-10-14T11:02:33.237Z,100421.22
2022-10-14T11:05:38.146Z,100415.69
2022-10-14T11:08:34.953Z,100409.78
2022-10-14T11:11:41.939Z,100403.50
2022-10-14T11:14:33.386Z,100385.16
2022-10-14T11:17:29.845Z,100389.38
2022-10-14T11:20:01.978Z,100391.31
2022-10-14T11:22:34.495Z,100382.94
2022-10-14T11:25:26.315Z,100383.97
2022-10-14T11:28:07.827Z,100379.09
2022-10-14T11:30:44.163Z,100371.09
2022-10-14T11:33:37.442Z,100380.47
2022-10-14T11:36:19.942Z,100370.13
2022-10-14T11:38:55.384Z,100365.25
2022-10-14T11:41:28.574Z,100375.09
2022-10-14T11:44:19.156Z,100363.41
2022-10-14T11:46:51.565Z,100368.75
2022-10-14T11:49:26.355Z,100371.09
2022-10-14T11:51:56.115Z,100367.06
2022-10-14T11:54:29.602Z,100368.63
2022-10-14T11:57:10.690Z,100361.22
2022-10-14T11:59:40.421Z,100350.72
2022-10-14T12:02:26.236Z,100346.94
2022-10-14T12:05:06.465Z,100345.25
2022-10-14T12:07:46.908Z,100348.00
2022-10-14T12:10:20.376Z,100343.34
2022-10-14T12:12:47.178Z,100341.22
2022-10-14T12:15:21.650Z,100335.19
2022-10-14T12:17:57.880Z,100331.13
2022-10-14T12:20:35.985Z,100333.56
2022-10-14T12:23:13.062Z,100330.28
2022-10-14T12:25:55.433Z,100333.56
2022-10-14T12:28:21.803Z,100322.19
2022-10-14T12:30:48.298Z,100326.03
2022-10-14T12:33:22.511Z,100322.19
2022-10-14T12:36:01.393Z,100316.91
2022-10-14T12:38:29.789Z,100315.31
2022-10-14T12:41:34.631Z,100312.84
2022-10-14T12:44:05.210Z,100312.56
2022-10-14T12:46:31.679Z,100307.75
2022-10-14T12:48:59.692Z,100305.34
2022-10-14T12:51:27.220Z,100302.75
2022-10-14T12:54:14.409Z,100297.00
2022-10-14T12:56:54.470Z,100296.38
2022-10-14T12:59:25.419Z,100292.88
2022-10-14T13:01:57.793Z,100292.16
2022-10-14T13:04:25.032Z,100293.16
2022-10-14T13:07:35.715Z,100285.69
2022-10-14T13:10:41.658Z,100284.94
2022-10-14T13:13:44.688Z,100285.66
2022-10-14T13:16:31.045Z,100288.94
2022-10-14T13:18:58.589Z,100286.22
2022-10-14T13:21:36.779Z,100283.00
2022-10-14T13:24:13.825Z,100277.78
2022-10-14T13:26:55.444Z,100282.38
2022-10-14T13:29:30.820Z,100275.50
2022-10-14T13:32:05.067Z,100279.16
2022-10-14T13:34:43.797Z,100288.59
2022-10-14T13:37:33.105Z,100286.13
2022-10-14T13:40:34.341Z,100279.06
2022-10-14T13:43:03.045Z,100281.84
2022-10-14T13:45:37.124Z,100281.22
2022-10-14T13:48:11.446Z,100284.38
2022-10-14T13:50:38.271Z,100277.88
2022-10-14T13:53:09.855Z,100280.78
2022-10-14T13:55:54.794Z,100300.22
2022-10-14T13:58:22.597Z,100285.84
2022-10-14T14:00:55.056Z,100285.84
2022-10-14T14:03:27.353Z,100284.72
2022-10-14T14:05:54.067Z,100282.31
2022-10-14T14:08:39.726Z,100281.22
2022-10-14T14:11:22.311Z,100277.44
2022-10-14T14:14:01.401Z,100269.53
2022-10-14T14:16:41.975Z,100279.44
2022-10-14T14:19:36.410Z,100271.69
2022-10-14T14:22:28.253Z,100272.88
2022-10-14T14:25:25.019Z,100270.22
2022-10-14T14:28:00.513Z,100270.34
2022-10-14T14:30:35.259Z,100268.28
2022-10-14T14:33:04.319Z,100273.16
2022-10-14T14:35:30.791Z,100267.22
2022-10-14T14:37:57.275Z,100266.19
2022-10-14T14:40:26.330Z,100256.72
2022-10-14T14:42:56.244Z,100259.53
2022-10-14T14:45:25.604Z,100268.28
2022-10-14T14:47:57.035Z,100277.28
2022-10-14T14:50:33.534Z,100264.25
2022-10-14T14:53:07.208Z,100277.03
2022-10-14T14:55:44.925Z,100271.28
2022-10-14T14:58:28.361Z,100265.56
2022-10-14T15:00:55.120Z,100271.16
2022-10-14T15:03:30.711Z,100267.22
2022-10-14T15:06:03.345Z,100254.31
2022-10-14T15:08:32.425Z,100258.72
2022-10-14T15:11:00.126Z,100254.56
2022-10-14T15:13:28.350Z,100253.66
2022-10-14T15:15:55.059Z,100244.44
2022-10-14T15:18:30.576Z,100238.34
2022-10-14T15:21:14.976Z,100230.66
2022-10-14T15:23:50.466Z,100232.44
2022-10-14T15:26:34.695Z,100229.19
2022-10-14T15:29:05.126Z,100225.44
2022-10-14T15:31:31.877Z,100228.19
2022-10-14T15:33:58.308Z,100220.31
2022-10-14T15:36:32.804Z,100217.63
2022-10-14T15:39:01.422Z,100223.16
2022-10-14T15:41:28.712Z,100217.50
2022-10-14T15:43:55.093Z,100217.50
2022-10-14T15:46:40.608Z,100217.34
2022-10-14T15:49:15.830Z,100222.63
2022-10-14T15:51:42.311Z,100220.91
2022-10-14T15:54:12.441Z,100213.84
2022-10-14T15:56:39.320Z,100211.97
2022-10-14T15:59:06.008Z,100209.22
2022-10-14T16:01:35.295Z,100211.81
2022-10-14T16:04:03.723Z,100208.41
2022-10-14T16:06:32.234Z,100200.88
2022-10-14T16:08:58.831Z,100195.06
2022-10-14T16:11:29.966Z,100190.97
2022-10-14T16:13:56.802Z,100193.59
2022-10-14T16:16:37.820Z,100183.84
2022-10-14T16:19:04.842Z,100186.38
2022-10-14T16:21:31.326Z,100187.19
2022-10-14T16:24:00.688Z,100179.50
2022-10-14T16:26:27.340Z,100176.84
2022-10-14T16:28:53.907Z,100178.13
2022-10-14T16:31:21.232Z,100177.88
2022-10-14T16:33:51.352Z,100177.88
2022-10-14T16:36:17.755Z,100181.50
2022-10-14T16:38:44.161Z,100172.34
2022-10-14T16:41:11.187Z,100177.41
2022-10-14T16:43:37.593Z,100180.91
2022-10-14T16:46:05.466Z,100171.59
2022-10-14T16:48:35.605Z,100171.75
2022-10-14T16:51:02.463Z,100166.84
2022-10-14T16:53:41.331Z,100168.53
2022-10-14T16:56:33.970Z,100155.78
2022-10-14T16:59:00.915Z,100168.63
2022-10-14T17:01:27.910Z,100176.34
2022-10-14T17:03:55.773Z,100178.16
2022-10-14T17:06:25.936Z,100173.69
2022-10-14T17:08:52.577Z,100171.06
2022-10-14T17:11:19.478Z,100162.59
2022-10-14T17:13:45.945Z,100166.53
2022-10-14T17:16:12.370Z,100177.56
2022-10-14T17:18:38.804Z,100171.47
2022-10-14T17:21:07.224Z,100184.84
2022-10-14T17:23:35.268Z,100182.97
2022-10-14T17:26:02.396Z,100182.16
2022-10-14T17:28:29.960Z,100189.03
2022-10-14T17:30:57.096Z,100184.78
2022-10-14T17:33:24.447Z,100174.41
2022-10-14T17:35:56.858Z,100174.41
2022-10-14T17:38:24.814Z,100172.72
2022-10-14T17:40:51.397Z,100180.16
2022-10-14T17:43:17.928Z,100178.22
2022-10-14T17:45:44.288Z,100170.19
2022-10-14T17:48:10.637Z,100178.75
2022-10-14T17:50:37.295Z,100177.16
2022-10-14T17:53:03.998Z,100173.09
2022-10-14T17:55:30.431Z,100174.56
2022-10-14T17:57:56.785Z,100176.50
2022-10-14T18:00:23.236Z,100173.09
2022-10-14T18:02:49.571Z,100167.94
2022-10-14T18:05:16.358Z,100174.13
2022-10-14T18:07:42.705Z,100171.59
2022-10-14T18:10:10.000Z,100167.22
2022-10-14T18:12:36.368Z,100163.78
2022-10-14T18:15:02.723Z,100160.94
2022-10-14T18:17:29.235Z,100167.06
2022-10-14T18:19:55.615Z,100154.63
2022-10-14T18:22:22.016Z,100166.41
2022-10-14T18:24:48.382Z,100158.44
2022-10-14T18:27:14.733Z,100156.41
2022-10-14T18:29:41.319Z,100159.78
2022-10-14T18:32:07.723Z,100171.28
2022-10-14T18:34:34.113Z,100170.47
2022-10-14T18:37:00.571Z,100165.94
2022-10-14T18:39:26.936Z,100168.69
2022-10-14T18:41:53.304Z,100171.28
2022-10-14T18:44:19.713Z,100170.94
2022-10-14T18:46:47.455Z,100167.25
2022-10-14T18:49:13.853Z,100165.84
2022-10-14T18:51:40.909Z,100167.53
2022-10-14T18:54:18.633Z,100166.66
2022-10-14T18:56:45.546Z,100163.25
2022-10-14T18:59:15.159Z,100172.75
2022-10-14T19:01:42.069Z,100170.13
2022-10-14T19:04:12.847Z,100157.84
2022-10-14T19:06:39.428Z,100161.22
2022-10-14T19:09:05.876Z,100155.19
2022-10-14T19:11:33.887Z,100149.69
2022-10-14T19:14:03.543Z,100144.41
2022-10-14T19:16:32.253Z,100151.00
2022-10-14T19:19:04.208Z,100144.75
2022-10-14T19:21:31.077Z,100154.00
2022-10-14T19:23:59.000Z,100157.94
2022-10-14T19:26:27.212Z,100156.91
2022-10-14T19:28:53.832Z,100177.28
2022-10-14T19:31:25.424Z,100173.81
2022-10-14T19:33:53.110Z,100174.19
2022-10-14T19:36:21.219Z,100175.84
2022-10-14T19:38:52.020Z,100164.59
2022-10-14T19:41:18.857Z,100166.97
2022-10-14T19:43:45.274Z,100163.66
2022-10-14T19:46:13.288Z,100161.63
2022-10-14T19:48:39.744Z,100151.16
2022-10-14T19:51:09.902Z,100147.47
2022-10-14T19:53:37.157Z,100145.41
2022-10-14T19:56:11.424Z,100139.00
2022-10-14T19:58:42.273Z,100141.91
2022-10-14T20:01:13.763Z,100142.25
2022-10-14T20:03:40.325Z,100150.13
2022-10-14T20:06:07.611Z,100150.38
2022-10-14T20:08:34.229Z,100139.72
2022-10-14T20:11:08.352Z,100137.63
2022-10-14T20:13:34.959Z,100136.31
2022-10-14T20:16:02.296Z,100143.63
2022-10-14T20:18:33.297Z,100135.66
2022-10-14T20:21:01.171Z,100137.53
2022-10-14T20:23:27.908Z,100134.41
2022-10-14T20:26:02.436Z,100144.00
2022-10-14T20:28:28.921Z,100141.19
2022-10-14T20:30:55.922Z,100146.69
2022-10-14T20:33:22.323Z,100141.81
2022-10-14T20:35:48.681Z,100146.16
2022-10-14T20:38:15.037Z,100149.47
2022-10-14T20:40:41.413Z,100140.38
2022-10-14T20:43:07.776Z,100137.97
2022-10-14T20:45:34.193Z,100137.41
2022-10-14T20:48:00.585Z,100140.81
2022-10-14T20:50:26.988Z,100134.56
2022-10-14T20:52:53.338Z,100132.88
2022-10-14T20:55:19.710Z,100138.06
2022-10-14T20:57:46.246Z,100135.69
2022-10-14T21:00:13.219Z,100126.44
2022-10-14T21:02:39.661Z,100126.44
2022-10-14T21:05:06.213Z,100127.09
2022-10-14T21:07:32.559Z,100127.09
2022-10-14T21:09:58.922Z,100134.38
2022-10-14T21:12:26.022Z,100127.25
2022-10-14T21:14:52.731Z,100118.78
2022-10-14T21:17:19.258Z,100130.97
2022-10-14T21:19:47.733Z,100124.56
2022-10-14T21:22:14.557Z,100120.81
2022-10-14T21:24:41.623Z,100115.56
2022-10-14T21:27:07.998Z,100112.94
2022-10-14T21:29:34.372Z,100107.75
2022-10-14T21:32:02.460Z,100109.47
2022-10-14T21:34:29.981Z,100119.09
2022-10-14T21:36:56.807Z,100120.66
2022-10-14T21:39:26.140Z,100108.31
2022-10-14T21:41:52.551Z,100120.22
2022-10-14T21:44:20.885Z,100121.44
2022-10-14T21:46:48.248Z,100109.84
2022-10-14T21:49:14.973Z,100114.16
2022-10-14T21:51:41.483Z,100108.03
2022-10-14T21:54:10.759Z,100102.84
2022-10-14T21:56:37.112Z,100105.44
2022-10-14T21:59:04.155Z,100114.06
2022-10-14T22:01:30.596Z,100113.16
2022-10-14T22:04:03.721Z,100107.88
2022-10-14T22:06:31.652Z,100110.47
2022-10-14T22:08:59.495Z,100103.91
2022-10-14T22:11:31.739Z,100106.44
2022-10-14T22:13:58.724Z,100106.81
2022-10-14T22:16:25.666Z,100109.53
2022-10-14T22:18:53.677Z,100106.94
2022-10-14T22:21:22.565Z,100110.56
2022-10-14T22:23:49.540Z,100100.50
2022-10-14T22:26:19.131Z,100104.06
2022-10-14T22:28:45.716Z,100099.59
2022-10-14T22:31:15.084Z,100102.38
2022-10-14T22:33:42.421Z,100114.53
2022-10-14T22:36:11.586Z,100103.56
2022-10-14T22:38:39.279Z,100102.53
2022-10-14T22:41:06.578Z,100110.91
2022-10-14T22:43:34.130Z,100106.66
2022-10-14T22:46:02.133Z,100101.81
2022-10-14T22:48:29.813Z,100100.09
2022-10-14T22:50:56.770Z,100102.59
2022-10-14T22:53:23.412Z,100097.06
2022-10-14T22:55:53.581Z,100094.31
2022-10-14T22:58:19.969Z,100086.59
2022-10-14T23:00:46.433Z,100088.38
2022-10-14T23:03:13.273Z,100088.25
2022-10-14T23:05:39.690Z,100079.63
2022-10-14T23:08:11.312Z,100075.09
2022-10-14T23:10:38.700Z,100078.50
2022-10-14T23:13:05.549Z,100080.59
2022-10-14T23:15:32.131Z,100088.09
2022-10-14T23:17:58.487Z,100092.94
2022-10-14T23:20:24.864Z,100090.97
2022-10-14T23:22:51.460Z,100078.00
2022-10-14T23:25:17.918Z,100087.59
2022-10-14T23:27:44.352Z,100085.13
2022-10-14T23:30:11.069Z,100079.72
2022-10-14T23:32:37.599Z,100079.53
2022-10-14T23:35:04.210Z,100083.47
2022-10-14T23:37:30.611Z,100088.34
2022-10-14T23:39:56.959Z,100090.16
2022-10-14T23:42:23.289Z,100090.47
2022-10-14T23:44:49.638Z,100076.84
2022-10-14T23:47:16.560Z,100069.84
2022-10-14T23:49:42.928Z,100080.44
2022-10-14T23:52:09.507Z,100081.97
2022-10-14T23:54:36.024Z,100083.75
2022-10-14T23:57:02.367Z,100080.75
2022-10-14T23:59:28.720Z,100068.81
